Ryland, Alabama
Current Conditions -  °F | °C
As of 10:55 AM on Thursday 30 Oct 2014 (Local Time) from KMDQ Reporting Station
Clear Clear  
Wind Chill: 57°   Ceiling: Unl
Heat Index: 57°   Visibility: 10mi
Dew Point: 34°   Wind: 6mph
Humidity: 41%   Direction: 50°NE
Pressure: 30.14"   Gusts: NA
Location:  34.77°N, 86.48°W
Report Text: KMDQ 301555Z AUTO 05005KT 10SM CLR 14/01 A3014 RMK AO2
Loading
Personal Weather Stations






























Interactive Weather Map
Tropical Storm Tracking
New forecast layout! Learn more

10-Day Weather Forecast

Advertisements
Track Severe Weather on mobile